sensor_id;sensor_type;location;lat;lon;timestamp;P1;durP1;ratioP1;P2;durP2;ratioP2
44850;SDS011;30583;48.714;9.386;2024-02-26T00:00:34;3.70;;;1.95;;
44850;SDS011;30583;48.714;9.386;2024-02-26T00:03:00;3.20;;;2.05;;
44850;SDS011;30583;48.714;9.386;2024-02-26T00:05:26;2.88;;;1.80;;
44850;SDS011;30583;48.714;9.386;2024-02-26T00:07:51;4.13;;;2.30;;
44850;SDS011;30583;48.714;9.386;2024-02-26T00:10:17;5.97;;;2.40;;
44850;SDS011;30583;48.714;9.386;2024-02-26T00:12:43;3.95;;;2.33;;
44850;SDS011;30583;48.714;9.386;2024-02-26T00:15:09;4.80;;;2.50;;
44850;SDS011;30583;48.714;9.386;2024-02-26T00:17:35;6.22;;;2.45;;
44850;SDS011;30583;48.714;9.386;2024-02-26T00:20:02;4.72;;;2.33;;
44850;SDS011;30583;48.714;9.386;2024-02-26T00:22:34;4.97;;;3.10;;
44850;SDS011;30583;48.714;9.386;2024-02-26T00:25:00;3.72;;;2.20;;
44850;SDS011;30583;48.714;9.386;2024-02-26T00:27:26;7.68;;;2.10;;
44850;SDS011;30583;48.714;9.386;2024-02-26T00:29:52;4.78;;;2.60;;
44850;SDS011;30583;48.714;9.386;2024-02-26T00:32:17;5.07;;;2.50;;
44850;SDS011;30583;48.714;9.386;2024-02-26T00:34:43;3.78;;;2.05;;
44850;SDS011;30583;48.714;9.386;2024-02-26T00:37:09;5.05;;;2.50;;
44850;SDS011;30583;48.714;9.386;2024-02-26T00:39:34;5.05;;;2.42;;
44850;SDS011;30583;48.714;9.386;2024-02-26T00:42:00;4.43;;;2.55;;
44850;SDS011;30583;48.714;9.386;2024-02-26T00:44:26;5.10;;;2.35;;
44850;SDS011;30583;48.714;9.386;2024-02-26T00:46:51;6.00;;;2.40;;
44850;SDS011;30583;48.714;9.386;2024-02-26T00:49:17;4.07;;;2.35;;
44850;SDS011;30583;48.714;9.386;2024-02-26T00:51:42;3.20;;;1.77;;
44850;SDS011;30583;48.714;9.386;2024-02-26T00:54:08;3.55;;;2.30;;
44850;SDS011;30583;48.714;9.386;2024-02-26T00:56:33;4.50;;;2.03;;
44850;SDS011;30583;48.714;9.386;2024-02-26T00:58:59;3.42;;;1.92;;
44850;SDS011;30583;48.714;9.386;2024-02-26T01:01:25;3.65;;;2.10;;
44850;SDS011;30583;48.714;9.386;2024-02-26T01:03:50;3.92;;;2.08;;
44850;SDS011;30583;48.714;9.386;2024-02-26T01:06:16;4.43;;;2.05;;
44850;SDS011;30583;48.714;9.386;2024-02-26T01:08:41;3.53;;;1.95;;
44850;SDS011;30583;48.714;9.386;2024-02-26T01:11:07;4.28;;;2.22;;
44850;SDS011;30583;48.714;9.386;2024-02-26T01:13:33;3.38;;;2.00;;
44850;SDS011;30583;48.714;9.386;2024-02-26T01:15:58;3.85;;;2.10;;
44850;SDS011;30583;48.714;9.386;2024-02-26T01:18:25;3.60;;;1.90;;
44850;SDS011;30583;48.714;9.386;2024-02-26T01:20:51;4.00;;;2.05;;
44850;SDS011;30583;48.714;9.386;2024-02-26T01:23:19;6.95;;;2.15;;
44850;SDS011;30583;48.714;9.386;2024-02-26T01:25:45;3.50;;;2.17;;
44850;SDS011;30583;48.714;9.386;2024-02-26T01:28:10;3.53;;;2.10;;
44850;SDS011;30583;48.714;9.386;2024-02-26T01:30:36;4.15;;;2.20;;
44850;SDS011;30583;48.714;9.386;2024-02-26T01:33:02;3.22;;;1.98;;
44850;SDS011;30583;48.714;9.386;2024-02-26T01:35:28;3.63;;;1.80;;
44850;SDS011;30583;48.714;9.386;2024-02-26T01:37:54;3.67;;;1.95;;
44850;SDS011;30583;48.714;9.386;2024-02-26T01:40:19;3.67;;;1.80;;
44850;SDS011;30583;48.714;9.386;2024-02-26T01:42:45;3.55;;;1.83;;
44850;SDS011;30583;48.714;9.386;2024-02-26T01:45:14;4.00;;;2.00;;
44850;SDS011;30583;48.714;9.386;2024-02-26T01:47:46;3.50;;;1.92;;
44850;SDS011;30583;48.714;9.386;2024-02-26T01:50:14;2.65;;;1.60;;
44850;SDS011;30583;48.714;9.386;2024-02-26T01:52:40;3.60;;;2.10;;
44850;SDS011;30583;48.714;9.386;2024-02-26T01:55:06;3.60;;;2.00;;
44850;SDS011;30583;48.714;9.386;2024-02-26T01:57:33;2.53;;;1.60;;
44850;SDS011;30583;48.714;9.386;2024-02-26T01:59:59;4.10;;;2.15;;
44850;SDS011;30583;48.714;9.386;2024-02-26T02:02:24;4.63;;;2.30;;
44850;SDS011;30583;48.714;9.386;2024-02-26T02:04:50;3.17;;;1.70;;
44850;SDS011;30583;48.714;9.386;2024-02-26T02:07:16;3.58;;;2.08;;
44850;SDS011;30583;48.714;9.386;2024-02-26T02:09:43;3.03;;;2.03;;
44850;SDS011;30583;48.714;9.386;2024-02-26T02:12:10;3.92;;;2.10;;
44850;SDS011;30583;48.714;9.386;2024-02-26T02:14:36;2.92;;;1.77;;
44850;SDS011;30583;48.714;9.386;2024-02-26T02:17:01;3.25;;;2.30;;
44850;SDS011;30583;48.714;9.386;2024-02-26T02:19:27;3.75;;;1.90;;
44850;SDS011;30583;48.714;9.386;2024-02-26T02:21:53;3.50;;;2.10;;
44850;SDS011;30583;48.714;9.386;2024-02-26T02:24:18;4.35;;;1.90;;
44850;SDS011;30583;48.714;9.386;2024-02-26T02:26:44;4.32;;;2.47;;
44850;SDS011;30583;48.714;9.386;2024-02-26T02:29:09;4.82;;;2.63;;
44850;SDS011;30583;48.714;9.386;2024-02-26T02:31:36;5.70;;;2.50;;
44850;SDS011;30583;48.714;9.386;2024-02-26T02:34:02;5.45;;;2.70;;
44850;SDS011;30583;48.714;9.386;2024-02-26T02:36:28;4.93;;;3.28;;
44850;SDS011;30583;48.714;9.386;2024-02-26T02:38:53;7.50;;;3.55;;
44850;SDS011;30583;48.714;9.386;2024-02-26T02:41:19;6.20;;;3.15;;
44850;SDS011;30583;48.714;9.386;2024-02-26T02:43:45;7.05;;;2.53;;
44850;SDS011;30583;48.714;9.386;2024-02-26T02:46:11;7.10;;;2.50;;
44850;SDS011;30583;48.714;9.386;2024-02-26T02:48:36;5.55;;;3.47;;
44850;SDS011;30583;48.714;9.386;2024-02-26T02:51:02;3.90;;;2.25;;
44850;SDS011;30583;48.714;9.386;2024-02-26T02:53:28;6.07;;;3.83;;
44850;SDS011;30583;48.714;9.386;2024-02-26T02:55:54;5.72;;;2.90;;
44850;SDS011;30583;48.714;9.386;2024-02-26T02:58:19;3.78;;;2.28;;
44850;SDS011;30583;48.714;9.386;2024-02-26T03:00:45;6.25;;;2.60;;
44850;SDS011;30583;48.714;9.386;2024-02-26T03:03:10;3.80;;;2.20;;
44850;SDS011;30583;48.714;9.386;2024-02-26T03:05:36;4.28;;;2.35;;
44850;SDS011;30583;48.714;9.386;2024-02-26T03:08:02;4.53;;;2.25;;
44850;SDS011;30583;48.714;9.386;2024-02-26T03:10:28;5.88;;;2.33;;
44850;SDS011;30583;48.714;9.386;2024-02-26T03:12:53;4.60;;;2.45;;
44850;SDS011;30583;48.714;9.386;2024-02-26T03:15:19;4.97;;;1.95;;
44850;SDS011;30583;48.714;9.386;2024-02-26T03:17:44;5.32;;;2.63;;
44850;SDS011;30583;48.714;9.386;2024-02-26T03:20:10;6.25;;;2.60;;
44850;SDS011;30583;48.714;9.386;2024-02-26T03:22:38;4.15;;;2.55;;
44850;SDS011;30583;48.714;9.386;2024-02-26T03:25:04;5.18;;;2.75;;
44850;SDS011;30583;48.714;9.386;2024-02-26T03:27:30;4.13;;;2.50;;
44850;SDS011;30583;48.714;9.386;2024-02-26T03:29:55;5.13;;;2.55;;
44850;SDS011;30583;48.714;9.386;2024-02-26T03:32:21;5.70;;;3.00;;
44850;SDS011;30583;48.714;9.386;2024-02-26T03:34:47;5.95;;;2.38;;
44850;SDS011;30583;48.714;9.386;2024-02-26T03:37:13;5.57;;;2.70;;
44850;SDS011;30583;48.714;9.386;2024-02-26T03:39:38;4.15;;;2.60;;
44850;SDS011;30583;48.714;9.386;2024-02-26T03:42:04;4.82;;;2.58;;
44850;SDS011;30583;48.714;9.386;2024-02-26T03:44:29;4.40;;;2.92;;
44850;SDS011;30583;48.714;9.386;2024-02-26T03:46:55;15.40;;;10.02;;
44850;SDS011;30583;48.714;9.386;2024-02-26T03:49:21;6.80;;;4.25;;
44850;SDS011;30583;48.714;9.386;2024-02-26T03:51:47;5.75;;;3.10;;
44850;SDS011;30583;48.714;9.386;2024-02-26T03:54:13;6.75;;;2.90;;
44850;SDS011;30583;48.714;9.386;2024-02-26T03:56:39;3.35;;;2.25;;
44850;SDS011;30583;48.714;9.386;2024-02-26T03:59:04;3.22;;;2.30;;
44850;SDS011;30583;48.714;9.386;2024-02-26T04:01:30;4.32;;;2.40;;
44850;SDS011;30583;48.714;9.386;2024-02-26T04:03:55;4.00;;;2.10;;
44850;SDS011;30583;48.714;9.386;2024-02-26T04:06:21;4.65;;;2.47;;
44850;SDS011;30583;48.714;9.386;2024-02-26T04:08:47;4.13;;;2.40;;
44850;SDS011;30583;48.714;9.386;2024-02-26T04:11:13;4.35;;;2.35;;
44850;SDS011;30583;48.714;9.386;2024-02-26T04:13:42;3.67;;;2.30;;
44850;SDS011;30583;48.714;9.386;2024-02-26T04:16:11;5.22;;;2.78;;
44850;SDS011;30583;48.714;9.386;2024-02-26T04:18:36;4.90;;;2.85;;
44850;SDS011;30583;48.714;9.386;2024-02-26T04:21:03;8.00;;;4.03;;
44850;SDS011;30583;48.714;9.386;2024-02-26T04:23:30;4.30;;;2.90;;
44850;SDS011;30583;48.714;9.386;2024-02-26T04:25:55;4.72;;;2.75;;
44850;SDS011;30583;48.714;9.386;2024-02-26T04:28:21;7.13;;;3.20;;
44850;SDS011;30583;48.714;9.386;2024-02-26T04:30:47;4.57;;;3.08;;
44850;SDS011;30583;48.714;9.386;2024-02-26T04:33:13;5.30;;;3.60;;
44850;SDS011;30583;48.714;9.386;2024-02-26T04:35:39;4.05;;;2.92;;
44850;SDS011;30583;48.714;9.386;2024-02-26T04:38:04;4.53;;;2.83;;
44850;SDS011;30583;48.714;9.386;2024-02-26T04:40:30;5.35;;;3.08;;
44850;SDS011;30583;48.714;9.386;2024-02-26T04:42:55;6.18;;;4.03;;
44850;SDS011;30583;48.714;9.386;2024-02-26T04:45:22;6.35;;;2.92;;
44850;SDS011;30583;48.714;9.386;2024-02-26T04:47:48;4.88;;;3.20;;
44850;SDS011;30583;48.714;9.386;2024-02-26T04:50:13;4.38;;;2.90;;
44850;SDS011;30583;48.714;9.386;2024-02-26T04:52:39;4.47;;;2.88;;
44850;SDS011;30583;48.714;9.386;2024-02-26T04:55:04;8.15;;;3.65;;
44850;SDS011;30583;48.714;9.386;2024-02-26T04:57:30;4.50;;;3.08;;
44850;SDS011;30583;48.714;9.386;2024-02-26T04:59:56;4.57;;;2.80;;
44850;SDS011;30583;48.714;9.386;2024-02-26T05:02:21;4.88;;;2.95;;
44850;SDS011;30583;48.714;9.386;2024-02-26T05:04:47;5.93;;;2.95;;
44850;SDS011;30583;48.714;9.386;2024-02-26T05:07:13;4.90;;;2.90;;
44850;SDS011;30583;48.714;9.386;2024-02-26T05:09:38;6.53;;;3.00;;
44850;SDS011;30583;48.714;9.386;2024-02-26T05:12:05;6.88;;;3.63;;
44850;SDS011;30583;48.714;9.386;2024-02-26T05:14:30;6.03;;;3.15;;
44850;SDS011;30583;48.714;9.386;2024-02-26T05:16:56;5.30;;;3.03;;
44850;SDS011;30583;48.714;9.386;2024-02-26T05:19:28;4.82;;;3.25;;
44850;SDS011;30583;48.714;9.386;2024-02-26T05:24:22;4.68;;;2.92;;
44850;SDS011;30583;48.714;9.386;2024-02-26T05:26:47;4.80;;;2.92;;
44850;SDS011;30583;48.714;9.386;2024-02-26T05:29:13;6.25;;;3.10;;
44850;SDS011;30583;48.714;9.386;2024-02-26T05:31:39;6.13;;;3.65;;
44850;SDS011;30583;48.714;9.386;2024-02-26T05:34:07;6.35;;;3.53;;
44850;SDS011;30583;48.714;9.386;2024-02-26T05:36:32;6.50;;;3.85;;
44850;SDS011;30583;48.714;9.386;2024-02-26T05:38:59;5.30;;;3.30;;
44850;SDS011;30583;48.714;9.386;2024-02-26T05:41:25;5.18;;;2.83;;
44850;SDS011;30583;48.714;9.386;2024-02-26T05:43:51;4.72;;;2.60;;
44850;SDS011;30583;48.714;9.386;2024-02-26T05:46:18;529.58;;;310.77;;
44850;SDS011;30583;48.714;9.386;2024-02-26T05:48:46;330.08;;;177.25;;
44850;SDS011;30583;48.714;9.386;2024-02-26T05:51:12;386.45;;;220.80;;
44850;SDS011;30583;48.714;9.386;2024-02-26T05:53:38;351.15;;;199.60;;
44850;SDS011;30583;48.714;9.386;2024-02-26T05:56:03;309.65;;;180.93;;
44850;SDS011;30583;48.714;9.386;2024-02-26T05:58:29;85.43;;;50.35;;
44850;SDS011;30583;48.714;9.386;2024-02-26T06:00:55;32.10;;;20.48;;
44850;SDS011;30583;48.714;9.386;2024-02-26T06:03:20;11.88;;;8.07;;
44850;SDS011;30583;48.714;9.386;2024-02-26T06:05:46;8.48;;;4.88;;
44850;SDS011;30583;48.714;9.386;2024-02-26T06:08:11;5.60;;;3.42;;
44850;SDS011;30583;48.714;9.386;2024-02-26T06:10:37;57.13;;;43.85;;
44850;SDS011;30583;48.714;9.386;2024-02-26T06:13:04;26.98;;;20.02;;
44850;SDS011;30583;48.714;9.386;2024-02-26T06:15:30;21.08;;;14.90;;
44850;SDS011;30583;48.714;9.386;2024-02-26T06:17:55;11.63;;;8.23;;
44850;SDS011;30583;48.714;9.386;2024-02-26T06:20:21;14.55;;;11.20;;
44850;SDS011;30583;48.714;9.386;2024-02-26T06:22:47;16.95;;;13.40;;
44850;SDS011;30583;48.714;9.386;2024-02-26T06:25:12;13.13;;;8.98;;
44850;SDS011;30583;48.714;9.386;2024-02-26T06:27:38;11.35;;;6.28;;
44850;SDS011;30583;48.714;9.386;2024-02-26T06:30:04;12.75;;;6.65;;
44850;SDS011;30583;48.714;9.386;2024-02-26T06:32:30;10.23;;;6.03;;
44850;SDS011;30583;48.714;9.386;2024-02-26T06:34:55;9.90;;;5.53;;
44850;SDS011;30583;48.714;9.386;2024-02-26T06:37:21;9.57;;;5.88;;
44850;SDS011;30583;48.714;9.386;2024-02-26T06:39:47;8.63;;;5.82;;
44850;SDS011;30583;48.714;9.386;2024-02-26T06:42:13;10.43;;;5.95;;
44850;SDS011;30583;48.714;9.386;2024-02-26T06:44:38;10.60;;;5.18;;
44850;SDS011;30583;48.714;9.386;2024-02-26T06:47:04;10.40;;;6.22;;
44850;SDS011;30583;48.714;9.386;2024-02-26T06:49:29;15.00;;;9.02;;
44850;SDS011;30583;48.714;9.386;2024-02-26T06:51:55;13.20;;;7.43;;
44850;SDS011;30583;48.714;9.386;2024-02-26T06:54:21;13.48;;;6.60;;
44850;SDS011;30583;48.714;9.386;2024-02-26T06:56:46;14.52;;;6.80;;
44850;SDS011;30583;48.714;9.386;2024-02-26T06:59:12;23.95;;;14.68;;
44850;SDS011;30583;48.714;9.386;2024-02-26T07:01:40;11.65;;;7.35;;
44850;SDS011;30583;48.714;9.386;2024-02-26T07:04:06;29.65;;;20.67;;
44850;SDS011;30583;48.714;9.386;2024-02-26T07:06:32;44.58;;;30.85;;
44850;SDS011;30583;48.714;9.386;2024-02-26T07:08:57;22.05;;;14.48;;
44850;SDS011;30583;48.714;9.386;2024-02-26T07:11:23;16.45;;;8.07;;
44850;SDS011;30583;48.714;9.386;2024-02-26T07:13:48;13.68;;;6.95;;
44850;SDS011;30583;48.714;9.386;2024-02-26T07:16:14;9.85;;;5.68;;
44850;SDS011;30583;48.714;9.386;2024-02-26T07:18:40;9.68;;;5.18;;
44850;SDS011;30583;48.714;9.386;2024-02-26T07:21:06;12.88;;;4.82;;
44850;SDS011;30583;48.714;9.386;2024-02-26T07:23:31;9.13;;;4.60;;
44850;SDS011;30583;48.714;9.386;2024-02-26T07:25:57;8.57;;;5.50;;
44850;SDS011;30583;48.714;9.386;2024-02-26T07:28:24;12.63;;;5.50;;
44850;SDS011;30583;48.714;9.386;2024-02-26T07:30:49;10.05;;;6.95;;
44850;SDS011;30583;48.714;9.386;2024-02-26T07:33:15;10.68;;;7.00;;
44850;SDS011;30583;48.714;9.386;2024-02-26T07:35:40;8.55;;;6.15;;
44850;SDS011;30583;48.714;9.386;2024-02-26T07:38:06;8.80;;;5.63;;
44850;SDS011;30583;48.714;9.386;2024-02-26T07:40:32;8.77;;;5.60;;
44850;SDS011;30583;48.714;9.386;2024-02-26T07:42:57;10.27;;;4.55;;
44850;SDS011;30583;48.714;9.386;2024-02-26T07:45:23;12.23;;;8.05;;
44850;SDS011;30583;48.714;9.386;2024-02-26T07:47:49;10.50;;;6.75;;
44850;SDS011;30583;48.714;9.386;2024-02-26T07:50:16;9.32;;;5.07;;
44850;SDS011;30583;48.714;9.386;2024-02-26T07:52:42;6.53;;;3.53;;
44850;SDS011;30583;48.714;9.386;2024-02-26T07:55:07;8.82;;;4.95;;
44850;SDS011;30583;48.714;9.386;2024-02-26T07:57:33;12.73;;;7.18;;
44850;SDS011;30583;48.714;9.386;2024-02-26T07:59:59;18.05;;;11.57;;
44850;SDS011;30583;48.714;9.386;2024-02-26T08:02:25;19.23;;;9.27;;
44850;SDS011;30583;48.714;9.386;2024-02-26T08:04:50;12.18;;;7.57;;
44850;SDS011;30583;48.714;9.386;2024-02-26T08:07:16;10.52;;;6.10;;
44850;SDS011;30583;48.714;9.386;2024-02-26T08:09:41;11.18;;;5.88;;
44850;SDS011;30583;48.714;9.386;2024-02-26T08:12:07;10.07;;;6.10;;
44850;SDS011;30583;48.714;9.386;2024-02-26T08:14:33;14.65;;;7.20;;
44850;SDS011;30583;48.714;9.386;2024-02-26T08:16:58;16.50;;;6.75;;
44850;SDS011;30583;48.714;9.386;2024-02-26T08:19:24;20.95;;;12.15;;
44850;SDS011;30583;48.714;9.386;2024-02-26T08:22:01;13.65;;;10.32;;
44850;SDS011;30583;48.714;9.386;2024-02-26T08:24:30;12.90;;;7.30;;
44850;SDS011;30583;48.714;9.386;2024-02-26T08:26:55;13.38;;;6.90;;
44850;SDS011;30583;48.714;9.386;2024-02-26T08:29:21;25.98;;;22.00;;
44850;SDS011;30583;48.714;9.386;2024-02-26T08:31:47;10.65;;;5.75;;
44850;SDS011;30583;48.714;9.386;2024-02-26T08:34:13;11.10;;;5.40;;
44850;SDS011;30583;48.714;9.386;2024-02-26T08:36:38;7.85;;;4.65;;
44850;SDS011;30583;48.714;9.386;2024-02-26T08:39:04;7.95;;;4.70;;
44850;SDS011;30583;48.714;9.386;2024-02-26T08:41:29;7.53;;;4.90;;
44850;SDS011;30583;48.714;9.386;2024-02-26T08:43:55;10.57;;;5.13;;
44850;SDS011;30583;48.714;9.386;2024-02-26T08:46:21;8.02;;;4.78;;
44850;SDS011;30583;48.714;9.386;2024-02-26T08:48:47;7.40;;;4.03;;
44850;SDS011;30583;48.714;9.386;2024-02-26T08:51:12;7.97;;;4.72;;
44850;SDS011;30583;48.714;9.386;2024-02-26T08:53:38;8.77;;;4.70;;
44850;SDS011;30583;48.714;9.386;2024-02-26T08:56:04;9.45;;;5.28;;
44850;SDS011;30583;48.714;9.386;2024-02-26T08:58:30;9.23;;;5.70;;
44850;SDS011;30583;48.714;9.386;2024-02-26T09:00:55;11.75;;;4.85;;
44850;SDS011;30583;48.714;9.386;2024-02-26T09:03:21;7.15;;;4.50;;
44850;SDS011;30583;48.714;9.386;2024-02-26T09:05:47;6.57;;;4.10;;
44850;SDS011;30583;48.714;9.386;2024-02-26T09:08:13;7.03;;;4.00;;
44850;SDS011;30583;48.714;9.386;2024-02-26T09:10:39;8.63;;;4.13;;
44850;SDS011;30583;48.714;9.386;2024-02-26T09:13:05;7.28;;;3.92;;
44850;SDS011;30583;48.714;9.386;2024-02-26T09:15:31;5.65;;;3.45;;
44850;SDS011;30583;48.714;9.386;2024-02-26T09:17:56;7.97;;;3.65;;
44850;SDS011;30583;48.714;9.386;2024-02-26T09:20:22;6.22;;;3.60;;
44850;SDS011;30583;48.714;9.386;2024-02-26T09:22:48;9.80;;;4.82;;
44850;SDS011;30583;48.714;9.386;2024-02-26T09:25:15;7.43;;;3.88;;
44850;SDS011;30583;48.714;9.386;2024-02-26T09:27:44;8.25;;;3.70;;
44850;SDS011;30583;48.714;9.386;2024-02-26T09:30:10;7.20;;;3.55;;
44850;SDS011;30583;48.714;9.386;2024-02-26T09:32:37;6.60;;;3.50;;
44850;SDS011;30583;48.714;9.386;2024-02-26T09:35:03;6.78;;;3.67;;
44850;SDS011;30583;48.714;9.386;2024-02-26T09:37:29;7.75;;;3.75;;
44850;SDS011;30583;48.714;9.386;2024-02-26T09:39:54;6.28;;;3.50;;
44850;SDS011;30583;48.714;9.386;2024-02-26T09:42:20;5.93;;;3.83;;
44850;SDS011;30583;48.714;9.386;2024-02-26T09:44:48;7.05;;;4.00;;
44850;SDS011;30583;48.714;9.386;2024-02-26T09:47:18;9.93;;;4.20;;
44850;SDS011;30583;48.714;9.386;2024-02-26T09:49:45;7.32;;;4.47;;
44850;SDS011;30583;48.714;9.386;2024-02-26T09:52:12;6.78;;;3.60;;
44850;SDS011;30583;48.714;9.386;2024-02-26T09:54:40;6.95;;;4.03;;
44850;SDS011;30583;48.714;9.386;2024-02-26T09:57:07;6.43;;;3.95;;
44850;SDS011;30583;48.714;9.386;2024-02-26T09:59:41;9.88;;;4.95;;
44850;SDS011;30583;48.714;9.386;2024-02-26T10:02:14;8.57;;;4.60;;
44850;SDS011;30583;48.714;9.386;2024-02-26T10:04:40;8.30;;;4.57;;
44850;SDS011;30583;48.714;9.386;2024-02-26T10:07:10;8.00;;;4.28;;
44850;SDS011;30583;48.714;9.386;2024-02-26T10:09:37;6.40;;;3.83;;
44850;SDS011;30583;48.714;9.386;2024-02-26T10:12:03;6.70;;;4.15;;
44850;SDS011;30583;48.714;9.386;2024-02-26T10:14:30;5.88;;;3.53;;
44850;SDS011;30583;48.714;9.386;2024-02-26T10:16:56;5.70;;;3.33;;
44850;SDS011;30583;48.714;9.386;2024-02-26T10:19:28;5.30;;;3.70;;
44850;SDS011;30583;48.714;9.386;2024-02-26T10:21:58;7.78;;;3.85;;
44850;SDS011;30583;48.714;9.386;2024-02-26T10:24:25;5.60;;;3.47;;
44850;SDS011;30583;48.714;9.386;2024-02-26T10:26:52;7.60;;;3.00;;
44850;SDS011;30583;48.714;9.386;2024-02-26T10:29:19;7.38;;;3.10;;
44850;SDS011;30583;48.714;9.386;2024-02-26T10:31:46;4.50;;;2.67;;
44850;SDS011;30583;48.714;9.386;2024-02-26T10:34:11;5.68;;;2.80;;
44850;SDS011;30583;48.714;9.386;2024-02-26T10:36:38;7.07;;;2.72;;
44850;SDS011;30583;48.714;9.386;2024-02-26T10:39:06;8.18;;;2.60;;
44850;SDS011;30583;48.714;9.386;2024-02-26T10:41:34;6.18;;;2.72;;
44850;SDS011;30583;48.714;9.386;2024-02-26T10:44:00;3.92;;;2.30;;
44850;SDS011;30583;48.714;9.386;2024-02-26T10:46:26;6.10;;;2.50;;
44850;SDS011;30583;48.714;9.386;2024-02-26T10:48:53;4.55;;;2.30;;
44850;SDS011;30583;48.714;9.386;2024-02-26T10:51:28;4.82;;;2.28;;
44850;SDS011;30583;48.714;9.386;2024-02-26T10:53:55;4.63;;;3.20;;
44850;SDS011;30583;48.714;9.386;2024-02-26T10:56:24;4.35;;;2.80;;
44850;SDS011;30583;48.714;9.386;2024-02-26T10:58:52;4.40;;;2.50;;
44850;SDS011;30583;48.714;9.386;2024-02-26T11:01:18;3.80;;;2.30;;
44850;SDS011;30583;48.714;9.386;2024-02-26T11:03:46;4.25;;;2.30;;
44850;SDS011;30583;48.714;9.386;2024-02-26T11:06:14;5.53;;;2.47;;
44850;SDS011;30583;48.714;9.386;2024-02-26T11:08:40;4.53;;;2.38;;
44850;SDS011;30583;48.714;9.386;2024-02-26T11:11:06;4.75;;;2.45;;
44850;SDS011;30583;48.714;9.386;2024-02-26T11:13:32;5.13;;;3.00;;
44850;SDS011;30583;48.714;9.386;2024-02-26T11:16:04;5.72;;;2.50;;
44850;SDS011;30583;48.714;9.386;2024-02-26T11:18:31;5.32;;;2.25;;
44850;SDS011;30583;48.714;9.386;2024-02-26T11:20:57;7.50;;;2.33;;
44850;SDS011;30583;48.714;9.386;2024-02-26T11:23:24;4.43;;;2.67;;
44850;SDS011;30583;48.714;9.386;2024-02-26T11:25:50;3.45;;;2.03;;
44850;SDS011;30583;48.714;9.386;2024-02-26T11:28:20;3.92;;;1.92;;
44850;SDS011;30583;48.714;9.386;2024-02-26T11:30:48;3.45;;;1.75;;
44850;SDS011;30583;48.714;9.386;2024-02-26T11:33:14;3.83;;;1.83;;
44850;SDS011;30583;48.714;9.386;2024-02-26T11:35:41;2.83;;;1.77;;
44850;SDS011;30583;48.714;9.386;2024-02-26T11:38:07;3.70;;;1.90;;
44850;SDS011;30583;48.714;9.386;2024-02-26T11:40:33;4.70;;;2.00;;
44850;SDS011;30583;48.714;9.386;2024-02-26T11:43:04;12.27;;;9.63;;
44850;SDS011;30583;48.714;9.386;2024-02-26T11:48:12;5.10;;;1.70;;
44850;SDS011;30583;48.714;9.386;2024-02-26T11:50:48;6.72;;;1.88;;
44850;SDS011;30583;48.714;9.386;2024-02-26T11:58:39;5.47;;;1.90;;
44850;SDS011;30583;48.714;9.386;2024-02-26T12:01:05;6.65;;;2.47;;
44850;SDS011;30583;48.714;9.386;2024-02-26T12:03:51;4.82;;;2.17;;
44850;SDS011;30583;48.714;9.386;2024-02-26T12:06:18;6.97;;;2.42;;
44850;SDS011;30583;48.714;9.386;2024-02-26T12:08:44;10.30;;;5.15;;
44850;SDS011;30583;48.714;9.386;2024-02-26T12:11:16;6.47;;;2.47;;
44850;SDS011;30583;48.714;9.386;2024-02-26T12:13:42;4.72;;;2.40;;
44850;SDS011;30583;48.714;9.386;2024-02-26T12:16:21;5.30;;;2.58;;
44850;SDS011;30583;48.714;9.386;2024-02-26T12:19:01;8.93;;;2.15;;
44850;SDS011;30583;48.714;9.386;2024-02-26T12:21:33;6.95;;;1.90;;
44850;SDS011;30583;48.714;9.386;2024-02-26T12:24:13;6.18;;;2.08;;
44850;SDS011;30583;48.714;9.386;2024-02-26T12:26:39;4.40;;;1.95;;
44850;SDS011;30583;48.714;9.386;2024-02-26T12:29:05;6.47;;;2.70;;
44850;SDS011;30583;48.714;9.386;2024-02-26T12:31:34;6.18;;;2.50;;
44850;SDS011;30583;48.714;9.386;2024-02-26T12:34:02;6.10;;;2.30;;
44850;SDS011;30583;48.714;9.386;2024-02-26T12:36:28;2.17;;;1.25;;
44850;SDS011;30583;48.714;9.386;2024-02-26T12:38:54;4.50;;;1.73;;
44850;SDS011;30583;48.714;9.386;2024-02-26T12:41:21;2.13;;;1.10;;
44850;SDS011;30583;48.714;9.386;2024-02-26T12:43:47;2.13;;;1.00;;
44850;SDS011;30583;48.714;9.386;2024-02-26T12:46:13;3.65;;;1.17;;
44850;SDS011;30583;48.714;9.386;2024-02-26T12:48:42;4.15;;;1.52;;
44850;SDS011;30583;48.714;9.386;2024-02-26T12:51:09;2.60;;;1.48;;
44850;SDS011;30583;48.714;9.386;2024-02-26T12:53:37;2.47;;;1.50;;
44850;SDS011;30583;48.714;9.386;2024-02-26T12:56:05;2.78;;;1.40;;
44850;SDS011;30583;48.714;9.386;2024-02-26T12:58:32;2.65;;;1.20;;
44850;SDS011;30583;48.714;9.386;2024-02-26T13:00:59;2.70;;;1.50;;
44850;SDS011;30583;48.714;9.386;2024-02-26T13:03:25;2.60;;;1.40;;
44850;SDS011;30583;48.714;9.386;2024-02-26T13:05:52;2.20;;;1.38;;
44850;SDS011;30583;48.714;9.386;2024-02-26T13:08:21;3.17;;;1.30;;
44850;SDS011;30583;48.714;9.386;2024-02-26T13:10:47;2.42;;;1.30;;
44850;SDS011;30583;48.714;9.386;2024-02-26T13:13:17;2.72;;;1.27;;
44850;SDS011;30583;48.714;9.386;2024-02-26T13:15:43;2.63;;;1.30;;
44850;SDS011;30583;48.714;9.386;2024-02-26T13:18:09;1.30;;;0.90;;
44850;SDS011;30583;48.714;9.386;2024-02-26T13:20:36;2.67;;;1.30;;
44850;SDS011;30583;48.714;9.386;2024-02-26T13:23:02;3.00;;;1.30;;
44850;SDS011;30583;48.714;9.386;2024-02-26T13:25:32;2.35;;;1.35;;
44850;SDS011;30583;48.714;9.386;2024-02-26T13:28:08;2.53;;;1.40;;
44850;SDS011;30583;48.714;9.386;2024-02-26T13:30:37;2.85;;;1.20;;
44850;SDS011;30583;48.714;9.386;2024-02-26T13:33:10;2.17;;;1.05;;
44850;SDS011;30583;48.714;9.386;2024-02-26T13:35:37;2.10;;;1.15;;
44850;SDS011;30583;48.714;9.386;2024-02-26T13:38:04;2.58;;;1.50;;
44850;SDS011;30583;48.714;9.386;2024-02-26T13:40:31;3.05;;;1.40;;
44850;SDS011;30583;48.714;9.386;2024-02-26T13:42:56;3.72;;;1.83;;
44850;SDS011;30583;48.714;9.386;2024-02-26T13:45:22;3.13;;;1.80;;
44850;SDS011;30583;48.714;9.386;2024-02-26T13:47:48;4.20;;;1.60;;
44850;SDS011;30583;48.714;9.386;2024-02-26T13:50:13;4.40;;;2.00;;
44850;SDS011;30583;48.714;9.386;2024-02-26T13:52:39;3.90;;;1.80;;
44850;SDS011;30583;48.714;9.386;2024-02-26T13:55:04;2.80;;;1.73;;
44850;SDS011;30583;48.714;9.386;2024-02-26T13:57:30;4.25;;;1.90;;
44850;SDS011;30583;48.714;9.386;2024-02-26T13:59:56;4.03;;;2.13;;
44850;SDS011;30583;48.714;9.386;2024-02-26T14:02:22;6.88;;;3.38;;
44850;SDS011;30583;48.714;9.386;2024-02-26T14:04:47;8.35;;;2.83;;
44850;SDS011;30583;48.714;9.386;2024-02-26T14:07:13;4.75;;;1.90;;
44850;SDS011;30583;48.714;9.386;2024-02-26T14:09:39;4.80;;;2.88;;
44850;SDS011;30583;48.714;9.386;2024-02-26T14:12:04;4.30;;;2.17;;
44850;SDS011;30583;48.714;9.386;2024-02-26T14:14:30;3.97;;;1.80;;
44850;SDS011;30583;48.714;9.386;2024-02-26T14:17:00;4.93;;;1.50;;
44850;SDS011;30583;48.714;9.386;2024-02-26T14:19:26;2.67;;;1.40;;
44850;SDS011;30583;48.714;9.386;2024-02-26T14:21:51;4.88;;;2.72;;
44850;SDS011;30583;48.714;9.386;2024-02-26T14:24:17;5.57;;;2.75;;
44850;SDS011;30583;48.714;9.386;2024-02-26T14:26:43;5.78;;;2.70;;
44850;SDS011;30583;48.714;9.386;2024-02-26T14:29:08;12.77;;;5.60;;
44850;SDS011;30583;48.714;9.386;2024-02-26T14:31:34;5.93;;;2.88;;
44850;SDS011;30583;48.714;9.386;2024-02-26T14:33:59;5.82;;;2.60;;
44850;SDS011;30583;48.714;9.386;2024-02-26T14:36:25;7.57;;;3.47;;
44850;SDS011;30583;48.714;9.386;2024-02-26T14:38:51;3.13;;;1.60;;
44850;SDS011;30583;48.714;9.386;2024-02-26T14:41:16;2.83;;;1.38;;
44850;SDS011;30583;48.714;9.386;2024-02-26T14:43:42;4.57;;;1.63;;
44850;SDS011;30583;48.714;9.386;2024-02-26T14:46:08;5.70;;;1.70;;
44850;SDS011;30583;48.714;9.386;2024-02-26T14:48:33;5.82;;;1.60;;